Time;durP1;ratioP1;P1;durP2;ratioP2;P2;SDS_P1;SDS_P2;PMS_P1;PMS_P2;Temp;Humidity;BMP_temperature;BMP_pressure;BME280_temperature;BME280_humidity;BME280_pressure;Samples;Min_cycle;Max_cycle;Signal;HPM_P1;HPM_P2
2023/12/20 00:01:35;;;;;;;;;;;;;;;;;;6245205;23;19935;-93
2023/12/20 00:04:01;;;;;;;;;;;;;;;;;;6245879;23;19930;-93
2023/12/20 00:06:27;;;;;;;;;;;;;;;;;;6244439;23;19907;-93
2023/12/20 00:08:53;;;;;;;;;;;;;;;;;;6244603;23;20336;-93
2023/12/20 00:11:19;;;;;;;;;;;;;;;;;;6244308;23;19935;-92
2023/12/20 00:13:45;;;;;;;;;;;;;;;;;;6243771;23;19915;-93
2023/12/20 00:16:11;;;;;;;;;;;;;;;;;;6244263;23;19911;-93
2023/12/20 00:18:37;;;;;;;;;;;;;;;;;;6244176;23;19915;-93
2023/12/20 00:21:03;;;;;;;;;;;;;;;;;;6244171;23;19911;-93
2023/12/20 00:23:29;;;;;;;;;;;;;;;;;;6242396;23;19919;-92
2023/12/20 00:25:54;;;;;;;;;;;;;;;;;;6244392;23;19903;-92
2023/12/20 00:28:21;;;;;;;;;;;;;;;;;;6244686;23;19916;-92
2023/12/20 00:30:46;;;;;;;;;;;;;;;;;;6244419;23;19911;-93
2023/12/20 00:33:12;;;;;;;;;;;;;;;;;;6243985;23;20322;-92
2023/12/20 00:35:38;;;;;;;;;;;;;;;;;;6245079;23;19919;-92
2023/12/20 00:38:06;;;;;;;;;;;;;;;;;;6243792;23;19908;-93
2023/12/20 00:40:33;;;;;;;;;;;;;;;;;;6242888;23;19914;-93
2023/12/20 00:42:59;;;;;;;;;;;;;;;;;;6243451;22;20321;-94
2023/12/20 00:45:25;;;;;;;;;;;;;;;;;;6242974;23;19930;-94
2023/12/20 00:47:51;;;;;;;;;;;;;;;;;;6243552;23;19908;-93
2023/12/20 00:50:17;;;;;;;;;;;;;;;;;;6243024;23;19918;-93
2023/12/20 00:52:43;;;;;;;;;;;;;;;;;;6242843;23;19939;-94
2023/12/20 00:55:09;;;;;;;;;;;;;;;;;;6243089;23;19907;-94
2023/12/20 00:57:35;;;;;;;;;;;;;;;;;;6242952;23;19954;-93
2023/12/20 01:00:01;;;;;;;;;;;;;;;;;;6243440;23;19931;-94
2023/12/20 01:02:27;;;;;;;;;;;;;;;;;;6242470;23;20312;-93
2023/12/20 01:04:53;;;;;;;;;;;;;;;;;;6241468;23;20691;-94
2023/12/20 01:07:18;;;;;;;;;;;;;;;;;;6243909;23;19914;-93
2023/12/20 01:09:47;;;;;;;;;;;;;;;;;;6243270;23;19911;-93
2023/12/20 01:12:13;;;;;;;;;;;;;;;;;;6242725;23;19914;-93
2023/12/20 01:14:39;;;;;;;;;;;;;;;;;;6244346;23;19982;-93
2023/12/20 01:17:05;;;;;;;;;;;;;;;;;;6243744;23;20245;-93
2023/12/20 01:19:31;;;;;;;;;;;;;;;;;;6241259;23;19907;-93
2023/12/20 01:21:57;;;;;;;;;;;;;;;;;;6243566;23;19911;-93
2023/12/20 01:24:23;;;;;;;;;;;;;;;;;;6248026;22;19919;-94
2023/12/20 01:26:49;;;;;;;;;;;;;;;;;;6249305;22;20336;-94
2023/12/20 01:29:15;;;;;;;;;;;;;;;;;;6249575;22;19934;-93
2023/12/20 01:31:41;;;;;;;;;;;;;;;;;;6249151;22;19907;-93
2023/12/20 01:34:07;;;;;;;;;;;;;;;;;;6247761;22;19937;-92
2023/12/20 01:36:33;;;;;;;;;;;;;;;;;;6248358;22;19907;-91
2023/12/20 01:38:59;;;;;;;;;;;;;;;;;;6247303;22;20391;-91
2023/12/20 01:41:25;;;;;;;;;;;;;;;;;;6248631;22;19911;-92
2023/12/20 01:43:52;;;;;;;;;;;;;;;;;;6249159;22;19907;-93
2023/12/20 01:46:18;;;;;;;;;;;;;;;;;;6249413;22;19907;-93
2023/12/20 01:48:44;;;;;;;;;;;;;;;;;;6248879;22;19934;-93
2023/12/20 01:51:10;;;;;;;;;;;;;;;;;;6249527;22;19903;-94
2023/12/20 01:53:36;;;;;;;;;;;;;;;;;;6248272;22;19907;-93
2023/12/20 01:56:02;;;;;;;;;;;;;;;;;;6249529;22;19904;-94
2023/12/20 01:58:28;;;;;;;;;;;;;;;;;;6249340;22;20340;-93
2023/12/20 02:00:54;;;;;;;;;;;;;;;;;;6249152;22;19946;-92
2023/12/20 02:03:20;;;;;;;;;;;;;;;;;;6249047;22;19949;-93
2023/12/20 02:05:46;;;;;;;;;;;;;;;;;;6249990;22;20254;-93
2023/12/20 02:08:12;;;;;;;;;;;;;;;;;;6250191;22;19915;-91
2023/12/20 02:10:38;;;;;;;;;;;;;;;;;;6250339;22;19953;-92
2023/12/20 02:13:04;;;;;;;;;;;;;;;;;;6276203;22;19907;-91
2023/12/20 02:15:30;;;;;;;;;;;;;;;;;;6250659;22;19968;-92
2023/12/20 02:17:56;;;;;;;;;;;;;;;;;;6250625;22;19985;-91
2023/12/20 02:20:22;;;;;;;;;;;;;;;;;;6249782;22;19903;-92
2023/12/20 02:22:48;;;;;;;;;;;;;;;;;;6250156;22;19938;-92
2023/12/20 02:25:13;;;;;;;;;;;;;;;;;;6221882;23;19958;-92
2023/12/20 02:27:39;;;;;;;;;;;;;;;;;;6219439;23;19970;-91
2023/12/20 02:30:05;;;;;;;;;;;;;;;;;;6220508;23;19910;-92
2023/12/20 02:32:31;;;;;;;;;;;;;;;;;;6218470;23;19903;-92
2023/12/20 02:34:57;;;;;;;;;;;;;;;;;;6218708;23;19919;-92
2023/12/20 02:37:23;;;;;;;;;;;;;;;;;;6219498;23;19942;-92
2023/12/20 02:39:49;;;;;;;;;;;;;;;;;;6218801;23;20649;-92
2023/12/20 02:42:15;;;;;;;;;;;;;;;;;;6219305;23;19926;-92
2023/12/20 02:44:41;;;;;;;;;;;;;;;;;;6219255;23;19948;-91
2023/12/20 02:47:07;;;;;;;;;;;;;;;;;;6219123;23;19904;-91
2023/12/20 02:49:33;;;;;;;;;;;;;;;;;;6218734;23;19911;-91
2023/12/20 02:51:59;;;;;;;;;;;;;;;;;;6219115;23;20461;-91
2023/12/20 02:54:25;;;;;;;;;;;;;;;;;;6219346;23;19904;-91
2023/12/20 02:56:51;;;;;;;;;;;;;;;;;;6218293;23;19907;-91
2023/12/20 02:59:17;;;;;;;;;;;;;;;;;;6219359;23;19908;-92
2023/12/20 03:01:42;;;;;;;;;;;;;;;;;;6218980;23;19903;-93
2023/12/20 03:04:09;;;;;;;;;;;;;;;;;;6244603;23;19983;-92
2023/12/20 03:06:36;;;;;;;;;;;;;;;;;;6246015;23;19907;-93
2023/12/20 03:09:02;;;;;;;;;;;;;;;;;;6220582;23;20242;-93
2023/12/20 03:11:28;;;;;;;;;;;;;;;;;;6218154;23;19907;-93
2023/12/20 03:13:54;;;;;;;;;;;;;;;;;;6218398;23;19911;-94
2023/12/20 03:16:20;;;;;;;;;;;;;;;;;;6218145;23;19915;-93
2023/12/20 03:18:46;;;;;;;;;;;;;;;;;;6219285;23;19904;-92
2023/12/20 03:21:12;;;;;;;;;;;;;;;;;;6218536;23;19914;-91
2023/12/20 03:23:38;;;;;;;;;;;;;;;;;;6224305;23;20185;-92
2023/12/20 03:26:04;;;;;;;;;;;;;;;;;;6244489;22;20009;-91
2023/12/20 03:28:29;;;;;;;;;;;;;;;;;;6243314;22;19918;-89
2023/12/20 03:30:55;;;;;;;;;;;;;;;;;;6242865;22;19904;-90
2023/12/20 03:33:21;;;;;;;;;;;;;;;;;;6242278;22;19904;-93
2023/12/20 03:35:47;;;;;;;;;;;;;;;;;;6242877;22;20358;-91
2023/12/20 03:38:13;;;;;;;;;;;;;;;;;;6243584;22;19908;-90
2023/12/20 03:40:39;;;;;;;;;;;;;;;;;;6242905;22;19927;-89
2023/12/20 03:43:05;;;;;;;;;;;;;;;;;;6242705;22;19907;-90
2023/12/20 03:45:31;;;;;;;;;;;;;;;;;;6244931;22;19911;-90
2023/12/20 03:47:57;;;;;;;;;;;;;;;;;;6245074;22;20242;-91
2023/12/20 03:50:23;;;;;;;;;;;;;;;;;;6246637;22;19907;-92
2023/12/20 03:52:52;;;;;;;;;;;;;;;;;;6247230;22;19940;-92
2023/12/20 03:55:18;;;;;;;;;;;;;;;;;;6247427;22;19904;-92
2023/12/20 03:57:44;;;;;;;;;;;;;;;;;;6246784;22;19956;-92
2023/12/20 04:00:10;;;;;;;;;;;;;;;;;;6247409;22;19907;-92
2023/12/20 04:02:37;;;;;;;;;;;;;;;;;;6247796;22;19904;-91
2023/12/20 04:05:03;;;;;;;;;;;;;;;;;;6245017;22;19953;-93
2023/12/20 04:07:29;;;;;;;;;;;;;;;;;;6245455;22;20319;-92
2023/12/20 04:09:55;;;;;;;;;;;;;;;;;;6246459;22;19931;-91
2023/12/20 04:12:21;;;;;;;;;;;;;;;;;;6244305;22;19908;-91
2023/12/20 04:14:47;;;;;;;;;;;;;;;;;;6244637;22;19910;-92
2023/12/20 04:17:13;;;;;;;;;;;;;;;;;;6245940;22;20269;-92
2023/12/20 04:19:39;;;;;;;;;;;;;;;;;;6246538;22;19987;-91
2023/12/20 04:22:05;;;;;;;;;;;;;;;;;;6245047;22;20243;-92
2023/12/20 04:24:31;;;;;;;;;;;;;;;;;;6244369;22;19926;-91
2023/12/20 04:26:57;;;;;;;;;;;;;;;;;;6243148;22;19958;-90
2023/12/20 04:29:23;;;;;;;;;;;;;;;;;;6243585;22;20326;-91
2023/12/20 04:31:51;;;;;;;;;;;;;;;;;;6242753;22;19954;-91
2023/12/20 04:34:17;;;;;;;;;;;;;;;;;;6243353;22;19912;-92
2023/12/20 04:36:43;;;;;;;;;;;;;;;;;;6242812;22;19904;-91
2023/12/20 04:39:09;;;;;;;;;;;;;;;;;;6245165;22;19991;-93
2023/12/20 04:41:34;;;;;;;;;;;;;;;;;;6246436;22;19967;-93
2023/12/20 04:44:00;;;;;;;;;;;;;;;;;;6248836;22;20344;-93
2023/12/20 04:46:26;;;;;;;;;;;;;;;;;;6247117;22;19911;-92
2023/12/20 04:48:52;;;;;;;;;;;;;;;;;;6245948;22;19934;-93
2023/12/20 04:51:18;;;;;;;;;;;;;;;;;;6243833;22;20003;-92
2023/12/20 04:53:44;;;;;;;;;;;;;;;;;;6244881;22;20309;-93
2023/12/20 04:56:10;;;;;;;;;;;;;;;;;;6243851;22;19907;-92
2023/12/20 04:58:36;;;;;;;;;;;;;;;;;;6244153;22;19955;-93
2023/12/20 05:01:02;;;;;;;;;;;;;;;;;;6243495;22;19907;-92
2023/12/20 05:03:28;;;;;;;;;;;;;;;;;;6245790;22;20607;-92
2023/12/20 05:05:54;;;;;;;;;;;;;;;;;;6242881;22;20241;-92
2023/12/20 05:08:20;;;;;;;;;;;;;;;;;;6244293;22;19969;-92
2023/12/20 05:10:46;;;;;;;;;;;;;;;;;;6244403;22;19907;-93
2023/12/20 05:13:12;;;;;;;;;;;;;;;;;;6243772;22;19908;-93
2023/12/20 05:15:38;;;;;;;;;;;;;;;;;;6244629;22;19962;-92
2023/12/20 05:18:04;;;;;;;;;;;;;;;;;;6244591;22;19908;-92
2023/12/20 05:20:30;;;;;;;;;;;;;;;;;;6243121;22;19939;-92
2023/12/20 05:22:56;;;;;;;;;;;;;;;;;;6243907;22;19940;-92
2023/12/20 05:25:22;;;;;;;;;;;;;;;;;;6243427;22;19915;-91
2023/12/20 05:27:48;;;;;;;;;;;;;;;;;;6244725;22;19922;-93
2023/12/20 05:30:14;;;;;;;;;;;;;;;;;;6245798;22;20318;-93
2023/12/20 05:32:40;;;;;;;;;;;;;;;;;;6245135;22;19915;-92
2023/12/20 05:35:07;;;;;;;;;;;;;;;;;;6246383;22;19903;-92
2023/12/20 05:37:33;;;;;;;;;;;;;;;;;;6246164;22;20291;-93
2023/12/20 05:39:59;;;;;;;;;;;;;;;;;;6247793;22;19904;-94
2023/12/20 05:42:24;;;;;;;;;;;;;;;;;;6245665;22;19907;-92
2023/12/20 05:44:50;;;;;;;;;;;;;;;;;;6245498;22;20033;-93
2023/12/20 05:47:16;;;;;;;;;;;;;;;;;;6246096;22;19911;-93
2023/12/20 05:49:42;;;;;;;;;;;;;;;;;;6243475;22;19911;-93
2023/12/20 05:52:08;;;;;;;;;;;;;;;;;;6244528;22;19939;-93
2023/12/20 05:54:34;;;;;;;;;;;;;;;;;;6246375;22;19934;-92
2023/12/20 05:57:00;;;;;;;;;;;;;;;;;;6245867;22;19927;-93
2023/12/20 05:59:26;;;;;;;;;;;;;;;;;;6244318;22;20318;-92
2023/12/20 06:01:52;;;;;;;;;;;;;;;;;;6244766;22;19990;-92
2023/12/20 06:04:18;;;;;;;;;;;;;;;;;;6244172;22;19987;-92
2023/12/20 06:06:44;;;;;;;;;;;;;;;;;;6246569;22;19911;-90
2023/12/20 06:09:10;;;;;;;;;;;;;;;;;;6244814;22;19908;-90
2023/12/20 06:11:36;;;;;;;;;;;;;;;;;;6243745;22;19957;-91
2023/12/20 06:14:02;;;;;;;;;;;;;;;;;;6245261;22;19903;-90
2023/12/20 06:16:28;;;;;;;;;;;;;;;;;;6242718;22;19908;-90
2023/12/20 06:18:53;;;;;;;;;;;;;;;;;;6244456;22;19918;-89
2023/12/20 06:21:19;;;;;;;;;;;;;;;;;;6243759;22;19962;-91
2023/12/20 06:23:45;;;;;;;;;;;;;;;;;;6244594;22;19915;-90
2023/12/20 06:26:11;;;;;;;;;;;;;;;;;;6245140;22;19946;-90
2023/12/20 06:28:37;;;;;;;;;;;;;;;;;;6244972;22;19947;-90
2023/12/20 06:31:06;;;;;;;;;;;;;;;;;;6243761;22;19931;-90
2023/12/20 06:33:32;;;;;;;;;;;;;;;;;;6245756;22;19911;-90
2023/12/20 06:35:58;;;;;;;;;;;;;;;;;;6243294;22;20345;-91
2023/12/20 06:38:24;;;;;;;;;;;;;;;;;;6245020;22;19908;-90
2023/12/20 06:40:50;;;;;;;;;;;;;;;;;;6244175;22;19911;-90
2023/12/20 06:43:16;;;;;;;;;;;;;;;;;;6244479;22;19903;-90
2023/12/20 06:45:42;;;;;;;;;;;;;;;;;;6246231;22;19904;-90
2023/12/20 06:48:08;;;;;;;;;;;;;;;;;;6245416;22;19954;-90
2023/12/20 06:50:34;;;;;;;;;;;;;;;;;;6244323;22;19912;-91
2023/12/20 06:53:06;;;;;;;;;;;;;;;;;;6245405;22;19915;-91
2023/12/20 06:55:32;;;;;;;;;;;;;;;;;;6245921;22;19914;-91
2023/12/20 06:57:58;;;;;;;;;;;;;;;;;;6245797;22;19975;-91
2023/12/20 07:00:24;;;;;;;;;;;;;;;;;;6245362;22;19935;-90
2023/12/20 07:02:50;;;;;;;;;;;;;;;;;;6244868;22;19911;-90
2023/12/20 07:05:17;;;;;;;;;;;;;;;;;;6246093;22;19960;-90
2023/12/20 07:07:43;;;;;;;;;;;;;;;;;;6246149;22;19910;-90
2023/12/20 07:10:09;;;;;;;;;;;;;;;;;;6246513;22;19904;-91
2023/12/20 07:12:35;;;;;;;;;;;;;;;;;;6244444;22;20211;-91
2023/12/20 07:15:01;;;;;;;;;;;;;;;;;;6246527;22;19998;-92
2023/12/20 07:17:27;;;;;;;;;;;;;;;;;;6245408;22;20010;-91
2023/12/20 07:19:53;;;;;;;;;;;;;;;;;;6244796;22;19988;-91
2023/12/20 07:22:19;;;;;;;;;;;;;;;;;;6244100;22;19915;-90
2023/12/20 07:24:45;;;;;;;;;;;;;;;;;;6244449;22;19916;-91
2023/12/20 07:27:11;;;;;;;;;;;;;;;;;;6244089;22;20622;-91
2023/12/20 07:29:37;;;;;;;;;;;;;;;;;;6244760;22;19908;-91
2023/12/20 07:32:03;;;;;;;;;;;;;;;;;;6243992;22;19911;-91
2023/12/20 07:34:29;;;;;;;;;;;;;;;;;;6243356;22;19904;-92
2023/12/20 07:37:01;;;;;;;;;;;;;;;;;;6245964;22;19908;-92
2023/12/20 07:39:32;;;;;;;;;;;;;;;;;;6247895;22;19911;-91
2023/12/20 07:41:58;;;;;;;;;;;;;;;;;;6243729;22;19903;-91
2023/12/20 07:44:24;;;;;;;;;;;;;;;;;;6245193;22;19991;-91
2023/12/20 07:46:50;;;;;;;;;;;;;;;;;;6243734;22;19910;-91
2023/12/20 07:49:16;;;;;;;;;;;;;;;;;;6245473;22;19954;-91
2023/12/20 07:51:42;;;;;;;;;;;;;;;;;;6243650;22;19910;-91
2023/12/20 07:54:08;;;;;;;;;;;;;;;;;;6244942;22;20252;-91
2023/12/20 07:56:34;;;;;;;;;;;;;;;;;;6243166;22;19954;-91
2023/12/20 07:59:01;;;;;;;;;;;;;;;;;;6244965;22;20322;-91
2023/12/20 08:01:27;;;;;;;;;;;;;;;;;;6244604;22;19907;-91
2023/12/20 08:03:53;;;;;;;;;;;;;;;;;;6243050;22;20409;-91
2023/12/20 08:06:19;;;;;;;;;;;;;;;;;;6243561;22;19947;-91
2023/12/20 08:08:45;;;;;;;;;;;;;;;;;;6243755;22;19908;-91
2023/12/20 08:11:11;;;;;;;;;;;;;;;;;;6245801;22;19973;-91
2023/12/20 08:13:37;;;;;;;;;;;;;;;;;;6244264;22;19907;-91
2023/12/20 08:16:04;;;;;;;;;;;;;;;;;;6245957;22;19908;-91
2023/12/20 08:18:30;;;;;;;;;;;;;;;;;;6244982;22;19938;-91
2023/12/20 08:20:56;;;;;;;;;;;;;;;;;;6243043;22;20029;-90
2023/12/20 08:23:22;;;;;;;;;;;;;;;;;;6244586;22;19904;-90
2023/12/20 08:25:48;;;;;;;;;;;;;;;;;;6248480;22;19915;-90
2023/12/20 08:28:14;;;;;;;;;;;;;;;;;;6247658;22;19922;-90
2023/12/20 08:30:40;;;;;;;;;;;;;;;;;;6248231;22;19903;-91
2023/12/20 08:33:11;;;;;;;;;;;;;;;;;;6248827;22;19904;-90
2023/12/20 08:35:36;;;;;;;;;;;;;;;;;;6247521;22;20527;-91
2023/12/20 08:38:03;;;;;;;;;;;;;;;;;;6248163;22;20005;-91
2023/12/20 08:40:29;;;;;;;;;;;;;;;;;;6248063;22;19976;-91
2023/12/20 08:42:55;;;;;;;;;;;;;;;;;;6248210;22;20322;-91
2023/12/20 08:45:21;;;;;;;;;;;;;;;;;;6248018;22;19907;-92
2023/12/20 08:47:47;;;;;;;;;;;;;;;;;;6248884;22;19970;-91
2023/12/20 08:50:15;;;;;;;;;;;;;;;;;;6247460;22;19910;-91
2023/12/20 08:52:41;;;;;;;;;;;;;;;;;;6248997;22;19988;-91
2023/12/20 08:55:07;;;;;;;;;;;;;;;;;;6248687;22;19907;-91
2023/12/20 08:57:33;;;;;;;;;;;;;;;;;;6248200;22;19910;-91
2023/12/20 08:59:59;;;;;;;;;;;;;;;;;;6248693;22;19913;-91
2023/12/20 09:02:38;;;;;;;;;;;;;;;;;;6248579;22;19910;-91
2023/12/20 09:05:05;;;;;;;;;;;;;;;;;;6247577;22;19911;-91
2023/12/20 09:07:31;;;;;;;;;;;;;;;;;;6247375;22;19910;-91
2023/12/20 09:09:57;;;;;;;;;;;;;;;;;;6248751;22;19938;-91
2023/12/20 09:12:23;;;;;;;;;;;;;;;;;;6246389;22;19907;-91
2023/12/20 09:14:49;;;;;;;;;;;;;;;;;;6249145;22;19910;-92
2023/12/20 09:17:16;;;;;;;;;;;;;;;;;;6248466;22;19907;-91
2023/12/20 09:19:41;;;;;;;;;;;;;;;;;;6249303;22;19978;-91
2023/12/20 09:22:09;;;;;;;;;;;;;;;;;;6247713;22;19938;-91
2023/12/20 09:24:41;;;;;;;;;;;;;;;;;;6244193;23;19958;-91
2023/12/20 09:27:07;;;;;;;;;;;;;;;;;;6244143;22;20596;-91
2023/12/20 09:29:33;;;;;;;;;;;;;;;;;;6246320;22;19915;-92
2023/12/20 09:32:00;;;;;;;;;;;;;;;;;;6248870;22;19908;-92
2023/12/20 09:34:26;;;;;;;;;;;;;;;;;;6248324;22;19939;-92
2023/12/20 09:36:52;;;;;;;;;;;;;;;;;;6245448;22;19926;-92
2023/12/20 09:39:21;;;;;;;;;;;;;;;;;;6244491;22;20330;-93
2023/12/20 09:41:47;;;;;;;;;;;;;;;;;;6242779;22;19908;-92
2023/12/20 09:44:14;;;;;;;;;;;;;;;;;;6243407;22;20377;-93
2023/12/20 09:46:39;;;;;;;;;;;;;;;;;;6244440;22;20301;-92
2023/12/20 09:49:05;;;;;;;;;;;;;;;;;;6243638;22;19907;-91
2023/12/20 09:51:31;;;;;;;;;;;;;;;;;;6242620;22;19908;-91
2023/12/20 09:53:57;;;;;;;;;;;;;;;;;;6243678;22;20336;-91
2023/12/20 09:56:23;;;;;;;;;;;;;;;;;;6244101;22;20330;-92
2023/12/20 09:58:49;;;;;;;;;;;;;;;;;;6244070;22;19950;-91
2023/12/20 10:01:15;;;;;;;;;;;;;;;;;;6244037;22;19907;-91
2023/12/20 10:03:41;;;;;;;;;;;;;;;;;;6242762;22;19911;-91
2023/12/20 10:06:07;;;;;;;;;;;;;;;;;;6244040;22;19937;-91
2023/12/20 10:08:33;;;;;;;;;;;;;;;;;;6244929;22;19911;-91
2023/12/20 10:11:02;;;;;;;;;;;;;;;;;;6243111;22;19908;-91
2023/12/20 10:13:28;;;;;;;;;;;;;;;;;;6243909;22;19907;-91
2023/12/20 10:15:54;;;;;;;;;;;;;;;;;;6244149;22;19957;-91
2023/12/20 10:18:20;;;;;;;;;;;;;;;;;;6244185;22;19907;-91
2023/12/20 10:20:46;;;;;;;;;;;;;;;;;;6243255;22;19903;-91
2023/12/20 10:23:13;;;;;;;;;;;;;;;;;;6244480;22;19918;-91
2023/12/20 10:25:39;;;;;;;;;;;;;;;;;;6249841;22;19919;-91
2023/12/20 10:28:08;;;;;;;;;;;;;;;;;;6250094;22;19994;-91
2023/12/20 10:30:34;;;;;;;;;;;;;;;;;;6249950;22;20330;-91
2023/12/20 10:33:00;;;;;;;;;;;;;;;;;;6250388;22;19972;-91
2023/12/20 10:35:26;;;;;;;;;;;;;;;;;;6249912;22;19907;-91
2023/12/20 10:37:52;;;;;;;;;;;;;;;;;;6249266;22;20364;-91
2023/12/20 10:40:18;;;;;;;;;;;;;;;;;;6250697;22;19957;-90
2023/12/20 10:42:43;;;;;;;;;;;;;;;;;;6249067;22;19907;-91
2023/12/20 10:45:09;;;;;;;;;;;;;;;;;;6250328;22;20233;-91
2023/12/20 10:47:36;;;;;;;;;;;;;;;;;;6250019;22;19907;-90
2023/12/20 10:50:02;;;;;;;;;;;;;;;;;;6250195;22;19904;-91
2023/12/20 10:52:27;;;;;;;;;;;;;;;;;;6251031;22;19986;-92
2023/12/20 10:54:53;;;;;;;;;;;;;;;;;;6250102;22;19914;-92
2023/12/20 10:57:19;;;;;;;;;;;;;;;;;;6249281;22;19954;-92
2023/12/20 10:59:49;;;;;;;;;;;;;;;;;;6249529;22;19910;-92
2023/12/20 11:02:18;;;;;;;;;;;;;;;;;;6277157;22;19907;-92
2023/12/20 11:04:44;;;;;;;;;;;;;;;;;;6249409;22;19907;-92
2023/12/20 11:07:10;;;;;;;;;;;;;;;;;;6249688;22;19929;-91
2023/12/20 11:09:36;;;;;;;;;;;;;;;;;;6249757;22;19993;-91
2023/12/20 11:12:02;;;;;;;;;;;;;;;;;;6249683;22;19930;-92
2023/12/20 11:14:27;;;;;;;;;;;;;;;;;;6250259;22;19951;-92
2023/12/20 11:16:53;;;;;;;;;;;;;;;;;;6250771;22;19908;-92
2023/12/20 11:19:19;;;;;;;;;;;;;;;;;;6249817;22;19910;-91
2023/12/20 11:21:45;;;;;;;;;;;;;;;;;;6249766;22;19907;-92
2023/12/20 11:24:11;;;;;;;;;;;;;;;;;;6249743;22;19919;-92
2023/12/20 11:26:37;;;;;;;;;;;;;;;;;;6247133;22;20253;-92
2023/12/20 11:29:03;;;;;;;;;;;;;;;;;;6250000;22;19911;-92
2023/12/20 11:31:29;;;;;;;;;;;;;;;;;;6248854;22;19904;-92
2023/12/20 11:33:56;;;;;;;;;;;;;;;;;;6248467;22;19912;-92
2023/12/20 11:36:24;;;;;;;;;;;;;;;;;;6248705;22;19952;-91
2023/12/20 11:38:51;;;;;;;;;;;;;;;;;;6250393;22;19912;-92
2023/12/20 11:41:17;;;;;;;;;;;;;;;;;;6249808;22;19911;-92
2023/12/20 11:43:43;;;;;;;;;;;;;;;;;;6249052;22;19907;-91
2023/12/20 11:46:09;;;;;;;;;;;;;;;;;;6250323;22;19907;-92
2023/12/20 11:48:35;;;;;;;;;;;;;;;;;;6250308;22;20635;-92
2023/12/20 11:51:03;;;;;;;;;;;;;;;;;;6249378;22;19980;-91
2023/12/20 11:53:30;;;;;;;;;;;;;;;;;;6249500;22;20280;-92
2023/12/20 11:55:56;;;;;;;;;;;;;;;;;;6250644;22;19962;-92
2023/12/20 11:58:22;;;;;;;;;;;;;;;;;;6249372;22;19903;-92
2023/12/20 12:00:48;;;;;;;;;;;;;;;;;;6248401;22;19907;-92
2023/12/20 12:03:14;;;;;;;;;;;;;;;;;;6248250;22;20318;-92
2023/12/20 12:05:40;;;;;;;;;;;;;;;;;;6246180;22;19907;-92
2023/12/20 12:08:07;;;;;;;;;;;;;;;;;;6249111;22;19908;-92
2023/12/20 12:10:33;;;;;;;;;;;;;;;;;;6248620;22;19949;-90
2023/12/20 12:12:59;;;;;;;;;;;;;;;;;;6248216;22;19911;-90
2023/12/20 12:15:25;;;;;;;;;;;;;;;;;;6275645;22;20361;-90
2023/12/20 12:17:51;;;;;;;;;;;;;;;;;;6249837;22;19903;-91
2023/12/20 12:20:17;;;;;;;;;;;;;;;;;;6248954;22;19961;-92
2023/12/20 12:22:43;;;;;;;;;;;;;;;;;;6248438;22;19958;-92
2023/12/20 12:25:10;;;;;;;;;;;;;;;;;;6265177;22;19942;-92
2023/12/20 12:27:36;;;;;;;;;;;;;;;;;;6243472;23;20014;-92
2023/12/20 12:30:02;;;;;;;;;;;;;;;;;;6243964;23;19972;-92
2023/12/20 12:32:28;;;;;;;;;;;;;;;;;;6244550;23;19914;-92
2023/12/20 12:34:54;;;;;;;;;;;;;;;;;;6243054;23;19908;-92
2023/12/20 12:37:20;;;;;;;;;;;;;;;;;;6242781;23;19915;-92
2023/12/20 12:39:46;;;;;;;;;;;;;;;;;;6246392;23;19922;-92
2023/12/20 12:42:12;;;;;;;;;;;;;;;;;;6247447;23;20363;-91
2023/12/20 12:44:38;;;;;;;;;;;;;;;;;;6248003;22;19907;-91
2023/12/20 12:47:05;;;;;;;;;;;;;;;;;;6249362;23;19957;-92
2023/12/20 12:49:31;;;;;;;;;;;;;;;;;;6248402;23;20341;-92
2023/12/20 12:51:58;;;;;;;;;;;;;;;;;;6248299;23;20330;-92
2023/12/20 12:54:24;;;;;;;;;;;;;;;;;;6247799;23;19908;-92
2023/12/20 12:56:50;;;;;;;;;;;;;;;;;;6248527;23;19914;-92
2023/12/20 12:59:16;;;;;;;;;;;;;;;;;;6247533;23;19903;-92
2023/12/20 13:01:42;;;;;;;;;;;;;;;;;;6247953;23;19911;-92
2023/12/20 13:04:10;;;;;;;;;;;;;;;;;;6246540;23;20341;-91
2023/12/20 13:06:36;;;;;;;;;;;;;;;;;;6242568;23;19914;-92
2023/12/20 13:09:02;;;;;;;;;;;;;;;;;;6243371;23;19908;-92
2023/12/20 13:11:29;;;;;;;;;;;;;;;;;;6243771;23;19965;-92
2023/12/20 13:13:54;;;;;;;;;;;;;;;;;;6243265;23;19995;-92
2023/12/20 13:16:20;;;;;;;;;;;;;;;;;;6245167;23;20334;-91
2023/12/20 13:18:46;;;;;;;;;;;;;;;;;;6242303;23;19958;-91
2023/12/20 13:21:12;;;;;;;;;;;;;;;;;;6242087;23;19957;-92
2023/12/20 13:23:38;;;;;;;;;;;;;;;;;;6243103;23;19907;-92
2023/12/20 13:26:04;;;;;;;;;;;;;;;;;;6244106;23;19919;-91
2023/12/20 13:28:30;;;;;;;;;;;;;;;;;;6242654;22;19935;-92
2023/12/20 13:30:56;;;;;;;;;;;;;;;;;;6244479;22;19949;-91
2023/12/20 13:33:22;;;;;;;;;;;;;;;;;;6243346;22;19908;-91
2023/12/20 13:35:48;;;;;;;;;;;;;;;;;;6243046;22;19911;-92
2023/12/20 13:38:14;;;;;;;;;;;;;;;;;;6243547;22;19983;-91
2023/12/20 13:40:40;;;;;;;;;;;;;;;;;;6243568;22;19912;-91
2023/12/20 13:43:06;;;;;;;;;;;;;;;;;;6242000;22;20304;-90
2023/12/20 13:45:32;;;;;;;;;;;;;;;;;;6244197;22;19985;-90
2023/12/20 13:47:58;;;;;;;;;;;;;;;;;;6244757;22;19935;-92
2023/12/20 13:50:24;;;;;;;;;;;;;;;;;;6243737;22;19922;-91
2023/12/20 13:52:50;;;;;;;;;;;;;;;;;;6243138;22;19908;-91
2023/12/20 13:55:16;;;;;;;;;;;;;;;;;;6244490;22;19908;-90
2023/12/20 13:57:42;;;;;;;;;;;;;;;;;;6242622;22;19907;-90
2023/12/20 14:00:14;;;;;;;;;;;;;;;;;;6246221;22;19918;-91
2023/12/20 14:02:40;;;;;;;;;;;;;;;;;;6247350;22;19891;-91
2023/12/20 14:05:06;;;;;;;;;;;;;;;;;;6246069;22;20014;-91
2023/12/20 14:07:32;;;;;;;;;;;;;;;;;;6244047;22;19986;-91
2023/12/20 14:09:59;;;;;;;;;;;;;;;;;;6245718;22;19907;-90
2023/12/20 14:12:25;;;;;;;;;;;;;;;;;;6245323;22;19990;-90
2023/12/20 14:14:51;;;;;;;;;;;;;;;;;;6244546;22;20326;-90
2023/12/20 14:17:17;;;;;;;;;;;;;;;;;;6244151;22;19939;-91
2023/12/20 14:19:42;;;;;;;;;;;;;;;;;;6245441;22;19939;-91
2023/12/20 14:22:08;;;;;;;;;;;;;;;;;;6243833;22;19930;-90
2023/12/20 14:24:34;;;;;;;;;;;;;;;;;;6245110;22;19904;-90
2023/12/20 14:27:00;;;;;;;;;;;;;;;;;;6242876;23;19965;-90
2023/12/20 14:29:27;;;;;;;;;;;;;;;;;;6244877;23;19911;-90
2023/12/20 14:31:53;;;;;;;;;;;;;;;;;;6243906;23;19933;-90
2023/12/20 14:34:19;;;;;;;;;;;;;;;;;;6244681;23;19904;-90
2023/12/20 14:36:44;;;;;;;;;;;;;;;;;;6243617;23;19966;-90
2023/12/20 14:39:12;;;;;;;;;;;;;;;;;;6244551;23;20285;-90
2023/12/20 14:41:40;;;;;;;;;;;;;;;;;;6243485;23;20282;-90
2023/12/20 14:44:06;;;;;;;;;;;;;;;;;;6244371;22;20245;-90
2023/12/20 14:46:32;;;;;;;;;;;;;;;;;;6243224;23;20258;-90
2023/12/20 14:48:58;;;;;;;;;;;;;;;;;;6243730;23;19926;-90
2023/12/20 14:51:24;;;;;;;;;;;;;;;;;;6242822;23;19908;-90
2023/12/20 14:53:50;;;;;;;;;;;;;;;;;;6244399;23;19950;-90
2023/12/20 14:56:16;;;;;;;;;;;;;;;;;;6243831;23;19908;-90
2023/12/20 14:58:42;;;;;;;;;;;;;;;;;;6243633;23;19903;-90
2023/12/20 15:01:09;;;;;;;;;;;;;;;;;;6243064;23;20314;-90
2023/12/20 15:03:34;;;;;;;;;;;;;;;;;;6243708;23;20357;-90
2023/12/20 15:06:00;;;;;;;;;;;;;;;;;;6244292;23;19908;-90
2023/12/20 15:08:27;;;;;;;;;;;;;;;;;;6244298;23;20392;-90
2023/12/20 15:10:52;;;;;;;;;;;;;;;;;;6243353;23;19907;-91
2023/12/20 15:13:18;;;;;;;;;;;;;;;;;;6244630;23;19903;-91
2023/12/20 15:15:44;;;;;;;;;;;;;;;;;;6245013;23;19931;-91
2023/12/20 15:18:10;;;;;;;;;;;;;;;;;;6244867;23;19904;-92
2023/12/20 15:20:36;;;;;;;;;;;;;;;;;;6244369;23;19908;-91
2023/12/20 15:23:07;;;;;;;;;;;;;;;;;;6244899;23;20359;-92
2023/12/20 15:25:33;;;;;;;;;;;;;;;;;;6248450;22;19916;-91
2023/12/20 15:27:59;;;;;;;;;;;;;;;;;;6249599;22;19954;-91
2023/12/20 15:30:25;;;;;;;;;;;;;;;;;;6249543;22;19911;-91
2023/12/20 15:32:51;;;;;;;;;;;;;;;;;;6250073;22;19904;-91
2023/12/20 15:35:17;;;;;;;;;;;;;;;;;;6249958;22;19907;-91
2023/12/20 15:37:43;;;;;;;;;;;;;;;;;;6250465;22;19907;-91
2023/12/20 15:40:12;;;;;;;;;;;;;;;;;;6251937;22;19908;-91
2023/12/20 15:42:38;;;;;;;;;;;;;;;;;;6251429;22;19903;-91
2023/12/20 15:45:04;;;;;;;;;;;;;;;;;;6249726;22;19907;-91
2023/12/20 15:47:30;;;;;;;;;;;;;;;;;;6250391;22;20293;-92
2023/12/20 15:49:56;;;;;;;;;;;;;;;;;;6249487;22;19964;-91
2023/12/20 15:52:22;;;;;;;;;;;;;;;;;;6249163;22;20287;-91
2023/12/20 15:54:48;;;;;;;;;;;;;;;;;;6250448;22;19903;-91
2023/12/20 15:57:17;;;;;;;;;;;;;;;;;;6249704;22;19908;-92
2023/12/20 15:59:43;;;;;;;;;;;;;;;;;;6277001;22;19911;-91
2023/12/20 16:02:08;;;;;;;;;;;;;;;;;;6249485;22;19911;-91
2023/12/20 16:04:34;;;;;;;;;;;;;;;;;;6249497;22;20322;-91
2023/12/20 16:07:00;;;;;;;;;;;;;;;;;;6249309;22;19933;-91
2023/12/20 16:09:26;;;;;;;;;;;;;;;;;;6249729;22;19922;-92
2023/12/20 16:11:52;;;;;;;;;;;;;;;;;;6250058;22;19904;-92
2023/12/20 16:14:19;;;;;;;;;;;;;;;;;;6249511;22;19938;-92
2023/12/20 16:16:45;;;;;;;;;;;;;;;;;;6249039;22;19907;-92
2023/12/20 16:19:11;;;;;;;;;;;;;;;;;;6249335;22;19952;-92
2023/12/20 16:21:37;;;;;;;;;;;;;;;;;;6249161;22;19914;-92
2023/12/20 16:24:03;;;;;;;;;;;;;;;;;;6249417;22;19982;-92
2023/12/20 16:26:29;;;;;;;;;;;;;;;;;;6249426;22;19919;-92
2023/12/20 16:28:54;;;;;;;;;;;;;;;;;;6249303;22;19907;-92
2023/12/20 16:31:20;;;;;;;;;;;;;;;;;;6249315;22;19914;-92
2023/12/20 16:33:46;;;;;;;;;;;;;;;;;;6249975;22;19908;-92
2023/12/20 16:36:12;;;;;;;;;;;;;;;;;;6248540;22;19907;-92
2023/12/20 16:38:39;;;;;;;;;;;;;;;;;;6250397;22;19907;-91